Time;durP1;ratioP1;P1;durP2;ratioP2;P2;SDS_P1;SDS_P2;PMS_P1;PMS_P2;Temp;Humidity;BMP_temperature;BMP_pressure;BME280_temperature;BME280_humidity;BME280_pressure;Samples;Min_cycle;Max_cycle;Signal;HPM_P1;HPM_P2
2023/11/07 00:00:06;;;;;;;;;;;;;;;10.28;73.16;98259.06;4844459;29;19989;-72
2023/11/07 00:02:33;;;;;;;;;;;;;;;10.26;72.78;98255.66;4844561;29;20011;-72
2023/11/07 00:04:59;;;;;;;;;;;;;;;10.19;73.10;98255.00;4846451;29;19924;-71
2023/11/07 00:07:25;;;;;;;;;;;;;;;10.22;73.33;98260.09;4844461;29;19989;-71
2023/11/07 00:09:51;;;;;;;;;;;;;;;10.23;73.42;98259.22;4860504;29;19924;-72
2023/11/07 00:12:17;;;;;;;;;;;;;;;10.24;73.07;98267.84;4829276;29;20363;-71
2023/11/07 00:14:43;;;;;;;;;;;;;;;10.29;72.88;98270.28;4856889;29;19933;-71
2023/11/07 00:17:09;;;;;;;;;;;;;;;10.31;73.44;98273.69;4844744;29;19931;-71
2023/11/07 00:19:36;;;;;;;;;;;;;;;10.30;73.40;98272.00;4858269;29;19932;-71
2023/11/07 00:22:02;;;;;;;;;;;;;;;10.33;73.52;98277.09;4860526;29;20055;-71
2023/11/07 00:24:28;;;;;;;;;;;;;;;10.34;73.26;98278.78;4842264;29;19924;-71
2023/11/07 00:26:54;;;;;;;;;;;;;;;10.35;73.28;98275.28;4858967;29;19973;-72
2023/11/07 00:29:21;;;;;;;;;;;;;;;10.35;73.42;98280.50;4843915;29;19931;-71
2023/11/07 00:31:47;;;;;;;;;;;;;;;10.33;73.15;98277.09;4843929;29;20455;-73
2023/11/07 00:34:16;;;;;;;;;;;;;;;10.36;73.32;98282.19;4827661;29;19928;-72
2023/11/07 00:36:43;;;;;;;;;;;;;;;10.37;73.55;98281.31;4832186;29;20333;-70
2023/11/07 00:39:09;;;;;;;;;;;;;;;10.40;73.65;98287.28;4842954;29;19980;-71
2023/11/07 00:41:35;;;;;;;;;;;;;;;10.41;73.78;98280.34;4858349;29;19932;-71
2023/11/07 00:44:01;;;;;;;;;;;;;;;10.43;73.28;98283.75;4843462;29;19931;-70
2023/11/07 00:46:27;;;;;;;;;;;;;;;10.43;73.30;98285.47;4841952;29;19928;-72
2023/11/07 00:48:53;;;;;;;;;;;;;;;10.42;73.25;98292.44;4857644;29;19931;-72
2023/11/07 00:51:19;;;;;;;;;;;;;;;10.47;73.63;98294.88;4843945;29;19935;-70
2023/11/07 00:53:45;;;;;;;;;;;;;;;10.47;73.52;98293.16;4843130;29;19930;-71
2023/11/07 00:56:10;;;;;;;;;;;;;;;10.47;73.19;98289.69;4847870;29;19974;-71
2023/11/07 00:58:36;;;;;;;;;;;;;;;10.48;73.30;98286.19;4831296;29;19928;-71
2023/11/07 01:01:02;;;;;;;;;;;;;;;10.45;73.21;98294.09;4854293;29;19935;-71
2023/11/07 01:03:28;;;;;;;;;;;;;;;10.45;73.24;98301.88;4852378;29;20295;-71
2023/11/07 01:05:53;;;;;;;;;;;;;;;10.44;73.33;98302.78;4853059;29;19951;-71
2023/11/07 01:08:20;;;;;;;;;;;;;;;10.40;73.15;98300.28;4867496;29;19967;-71
2023/11/07 01:10:46;;;;;;;;;;;;;;;10.41;73.68;98301.16;4860528;29;20431;-72
2023/11/07 01:13:15;;;;;;;;;;;;;;;10.43;73.42;98299.34;4853843;29;19924;-70
2023/11/07 01:15:41;;;;;;;;;;;;;;;10.42;73.34;98296.78;4868637;29;19924;-73
2023/11/07 01:18:08;;;;;;;;;;;;;;;10.38;73.61;98302.06;4842529;29;19950;-71
2023/11/07 01:20:34;;;;;;;;;;;;;;;10.40;73.33;98299.44;4868086;29;19924;-72
2023/11/07 01:23:00;;;;;;;;;;;;;;;10.40;73.48;98305.47;4853783;29;19953;-71
2023/11/07 01:25:27;;;;;;;;;;;;;;;10.39;73.84;98301.19;4867083;29;19928;-77
2023/11/07 01:27:54;;;;;;;;;;;;;;;10.40;73.62;98302.03;4844044;29;19924;-73
2023/11/07 01:30:21;;;;;;;;;;;;;;;10.40;73.31;98309.84;4868106;29;20379;-73
2023/11/07 01:32:49;;;;;;;;;;;;;;;10.43;73.81;98308.88;4868120;29;19943;-78
2023/11/07 01:35:18;;;;;;;;;;;;;;;10.46;73.76;98308.78;4853004;29;20600;-76
2023/11/07 01:37:44;;;;;;;;;;;;;;;10.43;73.26;98308.88;4854828;29;19932;-78
2023/11/07 01:40:12;;;;;;;;;;;;;;;10.40;73.76;98302.88;4856748;29;19960;-76
2023/11/07 01:42:42;;;;;;;;;;;;;;;10.37;73.75;98308.13;4835744;29;20348;-73
2023/11/07 01:45:10;;;;;;;;;;;;;;;10.37;73.89;98315.94;4852432;29;19940;-72
2023/11/07 01:47:36;;;;;;;;;;;;;;;10.19;73.81;98283.59;4851637;29;19984;-72
2023/11/07 01:50:02;;;;;;;;;;;;;;;10.45;73.68;98313.16;4867539;29;19981;-76
2023/11/07 01:52:29;;;;;;;;;;;;;;;10.46;73.80;98314.84;4851931;29;19975;-72
2023/11/07 01:54:55;;;;;;;;;;;;;;;10.45;73.57;98318.34;4836713;29;19935;-71
2023/11/07 01:57:21;;;;;;;;;;;;;;;10.46;73.99;98314.84;4853591;29;19932;-72
2023/11/07 01:59:47;;;;;;;;;;;;;;;10.45;73.36;98318.34;4857304;29;19979;-72
2023/11/07 02:02:17;;;;;;;;;;;;;;;10.45;73.72;98318.34;4856322;29;19924;-70
2023/11/07 02:04:45;;;;;;;;;;;;;;;10.42;73.70;98327.97;4847225;29;20014;-70
2023/11/07 02:07:11;;;;;;;;;;;;;;;10.41;73.69;98329.75;4857611;29;19924;-72
2023/11/07 02:09:38;;;;;;;;;;;;;;;10.44;73.89;98321.00;4858198;29;19964;-72
2023/11/07 02:12:04;;;;;;;;;;;;;;;10.47;74.02;98326.09;4858045;29;19928;-76
2023/11/07 02:14:35;;;;;;;;;;;;;;;10.47;73.50;98332.16;4843163;29;19925;-77
2023/11/07 02:17:01;;;;;;;;;;;;;;;10.48;73.94;98328.63;4840143;29;19931;-76
2023/11/07 02:19:26;;;;;;;;;;;;;;;10.48;73.80;98333.84;4827539;29;19928;-74
2023/11/07 02:22:14;;;;;;;;;;;;;;;10.52;73.74;98335.44;4855044;29;19949;-75
2023/11/07 02:24:40;;;;;;;;;;;;;;;10.55;73.89;98330.16;4831475;29;19989;-71
2023/11/07 02:27:05;;;;;;;;;;;;;;;10.58;73.75;98338.75;4845270;29;20345;-70
2023/11/07 02:29:34;;;;;;;;;;;;;;;10.60;73.54;98334.34;4810787;29;19931;-72
2023/11/07 02:31:59;;;;;;;;;;;;;;;10.61;73.62;98346.47;4843187;29;19966;-71
2023/11/07 02:34:25;;;;;;;;;;;;;;;10.62;73.65;98345.56;4841826;29;19940;-71
2023/11/07 02:36:51;;;;;;;;;;;;;;;10.60;73.63;98340.41;4842386;29;19928;-73
2023/11/07 02:39:17;;;;;;;;;;;;;;;10.62;74.00;98348.16;4842904;29;20004;-75
2023/11/07 02:41:44;;;;;;;;;;;;;;;10.64;73.91;98344.59;4847776;29;20028;-70
2023/11/07 02:44:10;;;;;;;;;;;;;;;10.68;73.38;98350.56;4841581;29;19994;-70
2023/11/07 02:46:38;;;;;;;;;;;;;;;10.65;73.56;98350.66;4856833;29;19964;-69
2023/11/07 02:49:05;;;;;;;;;;;;;;;10.63;73.17;98355.06;4845036;29;19928;-71
2023/11/07 02:51:31;;;;;;;;;;;;;;;10.63;73.61;98355.06;4860644;29;19970;-73
2023/11/07 02:53:57;;;;;;;;;;;;;;;10.62;73.74;98359.41;4837826;29;19924;-73
2023/11/07 02:56:26;;;;;;;;;;;;;;;10.61;73.38;98352.50;4846856;29;20741;-72
2023/11/07 02:58:55;;;;;;;;;;;;;;;10.65;73.87;98366.28;4837035;29;19928;-72
2023/11/07 03:01:21;;;;;;;;;;;;;;;10.63;73.52;98366.31;4851956;29;19928;-74
2023/11/07 03:03:50;;;;;;;;;;;;;;;10.65;73.16;98354.09;4845927;29;19976;-71
2023/11/07 03:06:17;;;;;;;;;;;;;;;10.63;73.28;98360.28;4846431;29;19924;-72
2023/11/07 03:08:44;;;;;;;;;;;;;;;10.62;73.21;98366.38;4835585;29;19928;-71
2023/11/07 03:11:10;;;;;;;;;;;;;;;10.61;73.45;98369.88;4835847;29;19947;-73
2023/11/07 03:13:36;;;;;;;;;;;;;;;10.60;73.31;98358.59;4851246;29;20307;-70
2023/11/07 03:16:02;;;;;;;;;;;;;;;10.62;73.22;98363.78;4835416;29;19990;-71
2023/11/07 03:18:28;;;;;;;;;;;;;;;10.64;73.70;98364.56;4833028;29;19932;-71
2023/11/07 03:20:54;;;;;;;;;;;;;;;10.67;73.44;98369.69;4816720;29;20008;-75
2023/11/07 03:23:20;;;;;;;;;;;;;;;10.66;73.44;98374.03;4858446;29;20379;-76
2023/11/07 03:25:45;;;;;;;;;;;;;;;10.64;73.34;98375.81;4841801;29;20421;-73
2023/11/07 03:28:11;;;;;;;;;;;;;;;10.62;73.40;98372.41;4856823;29;19963;-75
2023/11/07 03:30:37;;;;;;;;;;;;;;;10.62;73.49;98381.97;4844578;29;20276;-75
2023/11/07 03:33:03;;;;;;;;;;;;;;;10.61;73.28;98370.72;4838092;29;19947;-74
2023/11/07 03:35:30;;;;;;;;;;;;;;;10.63;73.74;98376.72;4845158;29;19977;-76
2023/11/07 03:37:58;;;;;;;;;;;;;;;10.63;73.35;98381.09;4856146;29;19941;-76
2023/11/07 03:40:24;;;;;;;;;;;;;;;10.42;73.33;98351.38;4845029;29;19924;-74
2023/11/07 03:42:50;;;;;;;;;;;;;;;10.63;73.69;98376.72;4844674;29;19959;-73
2023/11/07 03:45:16;;;;;;;;;;;;;;;10.64;73.29;98383.63;4851821;29;19973;-76
2023/11/07 03:47:42;;;;;;;;;;;;;;;10.58;73.36;98385.56;4838103;29;19924;-75
2023/11/07 03:50:08;;;;;;;;;;;;;;;10.58;73.28;98378.63;4842713;29;19924;-76
2023/11/07 03:52:34;;;;;;;;;;;;;;;10.55;73.16;98387.38;4829449;29;19924;-76
2023/11/07 03:54:59;;;;;;;;;;;;;;;10.54;73.51;98383.06;4818515;29;19930;-75
2023/11/07 03:57:25;;;;;;;;;;;;;;;10.57;73.41;98389.06;4852531;29;19932;-78
2023/11/07 03:59:51;;;;;;;;;;;;;;;10.59;73.56;98393.34;4828502;29;19971;-73
2023/11/07 04:02:21;;;;;;;;;;;;;;;10.54;73.21;98396.06;4853887;29;19924;-78
2023/11/07 04:04:48;;;;;;;;;;;;;;;10.57;73.26;98394.28;4840449;29;19925;-74
2023/11/07 04:07:15;;;;;;;;;;;;;;;10.53;73.18;98399.56;4837529;29;19924;-75
2023/11/07 04:09:41;;;;;;;;;;;;;;;10.54;73.38;98400.44;4859192;29;19980;-76
2023/11/07 04:12:07;;;;;;;;;;;;;;;10.53;73.41;98402.16;4842267;29;19924;-73
2023/11/07 04:14:33;;;;;;;;;;;;;;;10.54;73.62;98410.84;4806016;29;20028;-70
2023/11/07 04:16:59;;;;;;;;;;;;;;;10.52;73.17;98408.28;4831865;29;19931;-71
2023/11/07 04:19:25;;;;;;;;;;;;;;;10.45;72.98;98411.09;4836411;29;19967;-71
2023/11/07 04:21:52;;;;;;;;;;;;;;;10.38;73.03;98411.28;4840862;29;20039;-71
2023/11/07 04:24:22;;;;;;;;;;;;;;;10.34;73.64;98409.66;4844620;29;19947;-71
2023/11/07 04:26:47;;;;;;;;;;;;;;;10.35;73.44;98411.38;4842653;29;20268;-71
2023/11/07 04:29:13;;;;;;;;;;;;;;;10.37;73.45;98409.56;4834824;29;19924;-70
2023/11/07 04:31:40;;;;;;;;;;;;;;;10.38;73.63;98416.47;4835445;29;19928;-71
2023/11/07 04:34:09;;;;;;;;;;;;;;;10.38;73.58;98420.81;4835851;29;20031;-71
2023/11/07 04:36:38;;;;;;;;;;;;;;;10.39;73.55;98422.56;4834487;29;19928;-70
2023/11/07 04:39:05;;;;;;;;;;;;;;;10.42;73.60;98417.25;4836351;29;20009;-70
2023/11/07 04:41:33;;;;;;;;;;;;;;;10.43;73.54;98420.69;4850563;29;20054;-70
2023/11/07 04:44:01;;;;;;;;;;;;;;;10.46;73.52;98426.69;4849892;29;19929;-70
2023/11/07 04:46:27;;;;;;;;;;;;;;;10.43;73.25;98433.69;4841828;29;19932;-71
2023/11/07 04:48:54;;;;;;;;;;;;;;;10.35;73.63;98429.56;4849590;29;19925;-73
2023/11/07 04:51:20;;;;;;;;;;;;;;;10.24;73.64;98434.22;4842615;29;20088;-71
2023/11/07 04:53:49;;;;;;;;;;;;;;;10.16;73.83;98436.19;4850586;29;19951;-69
2023/11/07 04:56:15;;;;;;;;;;;;;;;10.13;73.92;98442.34;4849719;29;19928;-69
2023/11/07 04:58:42;;;;;;;;;;;;;;;10.10;74.00;98439.81;4853859;29;19932;-70
2023/11/07 05:01:09;;;;;;;;;;;;;;;10.07;74.11;98437.31;4847413;29;20384;-70
2023/11/07 05:03:36;;;;;;;;;;;;;;;10.10;74.13;98445.00;4857393;29;19928;-70
2023/11/07 05:06:02;;;;;;;;;;;;;;;10.10;74.27;98442.41;4855331;29;19924;-72
2023/11/07 05:08:29;;;;;;;;;;;;;;;10.10;73.87;98437.22;4859156;29;19928;-71
2023/11/07 05:10:54;;;;;;;;;;;;;;;10.10;74.37;98445.88;4846001;29;19931;-70
2023/11/07 05:13:20;;;;;;;;;;;;;;;10.08;74.33;98445.06;4842678;29;19924;-70
2023/11/07 05:15:47;;;;;;;;;;;;;;;10.10;73.99;98445.88;4844437;29;19935;-71
2023/11/07 05:18:12;;;;;;;;;;;;;;;10.09;74.35;98449.38;4847238;29;19932;-70
2023/11/07 05:20:38;;;;;;;;;;;;;;;10.08;74.41;98449.41;4828833;29;20401;-69
2023/11/07 05:23:05;;;;;;;;;;;;;;;10.09;74.47;98458.91;4841454;29;19935;-71
2023/11/07 05:25:32;;;;;;;;;;;;;;;10.13;74.35;98457.94;4842392;29;19924;-72
2023/11/07 05:27:59;;;;;;;;;;;;;;;10.17;74.28;98464.75;4817291;29;20367;-69
2023/11/07 05:30:25;;;;;;;;;;;;;;;10.20;74.50;98459.47;4843803;29;19928;-71
2023/11/07 05:32:52;;;;;;;;;;;;;;;10.22;74.72;98468.06;4832312;29;20054;-70
2023/11/07 05:35:18;;;;;;;;;;;;;;;10.28;74.32;98469.63;4857267;29;20493;-69
2023/11/07 05:37:47;;;;;;;;;;;;;;;10.35;74.55;98468.56;4839507;29;20038;-71
2023/11/07 05:40:13;;;;;;;;;;;;;;;10.37;74.50;98466.75;4843600;29;19924;-71
2023/11/07 05:42:40;;;;;;;;;;;;;;;10.38;74.14;98472.81;4826363;29;19944;-71
2023/11/07 05:45:09;;;;;;;;;;;;;;;10.43;74.56;98470.13;4858622;29;19929;-71
2023/11/07 05:47:40;;;;;;;;;;;;;;;10.47;74.45;98480.41;4843487;29;19929;-71
2023/11/07 05:50:06;;;;;;;;;;;;;;;10.48;74.35;98481.22;4845610;29;19928;-71
2023/11/07 05:52:32;;;;;;;;;;;;;;;10.49;74.41;98477.75;4840827;29;19931;-71
2023/11/07 05:55:02;;;;;;;;;;;;;;;10.52;74.16;98473.28;4844693;29;19924;-70
2023/11/07 05:57:30;;;;;;;;;;;;;;;10.59;74.34;98478.31;4840011;29;19972;-71
2023/11/07 05:59:56;;;;;;;;;;;;;;;10.65;74.18;98483.34;4843587;29;20191;-71
2023/11/07 06:02:22;;;;;;;;;;;;;;;10.67;74.23;98481.56;4840578;29;19934;-71
2023/11/07 06:04:47;;;;;;;;;;;;;;;10.67;73.84;98482.38;4841623;29;19929;-71
2023/11/07 06:07:13;;;;;;;;;;;;;;;10.67;74.04;98485.00;4845170;29;19928;-71
2023/11/07 06:09:39;;;;;;;;;;;;;;;10.68;73.92;98480.66;4843708;29;20501;-70
2023/11/07 06:12:05;;;;;;;;;;;;;;;10.71;73.97;98485.72;4849423;29;19928;-70
2023/11/07 06:14:31;;;;;;;;;;;;;;;10.75;74.12;98495.16;4849112;29;19931;-71
2023/11/07 06:16:57;;;;;;;;;;;;;;;10.80;73.82;98495.03;4846861;29;19932;-71
2023/11/07 06:19:22;;;;;;;;;;;;;;;10.81;73.82;98500.19;4829611;29;20261;-72
2023/11/07 06:21:49;;;;;;;;;;;;;;;10.84;73.93;98497.50;4847649;29;19924;-70
2023/11/07 06:24:15;;;;;;;;;;;;;;;10.90;73.85;98501.66;4845627;29;19927;-72
2023/11/07 06:26:42;;;;;;;;;;;;;;;10.87;73.81;98506.94;4846490;29;19925;-71
2023/11/07 06:29:09;;;;;;;;;;;;;;;10.84;73.43;98507.91;4846039;29;19939;-71
2023/11/07 06:31:34;;;;;;;;;;;;;;;10.83;73.35;98515.75;4847153;29;20403;-71
2023/11/07 06:34:00;;;;;;;;;;;;;;;10.89;73.59;98510.34;4844021;29;19955;-71
2023/11/07 06:36:26;;;;;;;;;;;;;;;10.94;73.63;98510.19;4844489;29;19929;-70
2023/11/07 06:38:52;;;;;;;;;;;;;;;10.98;73.58;98515.28;4844285;29;20004;-72
2023/11/07 06:41:19;;;;;;;;;;;;;;;10.93;73.20;98516.31;4845108;29;20386;-71
2023/11/07 06:43:46;;;;;;;;;;;;;;;10.91;73.21;98516.38;4861565;29;19964;-70
2023/11/07 06:46:13;;;;;;;;;;;;;;;10.85;73.33;98520.00;4829282;29;19924;-71
2023/11/07 06:48:39;;;;;;;;;;;;;;;10.81;73.43;98534.00;4828393;29;20032;-70
2023/11/07 06:51:05;;;;;;;;;;;;;;;10.82;73.15;98533.13;4860287;29;20300;-71
2023/11/07 06:53:31;;;;;;;;;;;;;;;10.85;73.47;98535.63;4845212;29;19925;-71
2023/11/07 06:56:00;;;;;;;;;;;;;;;10.90;73.35;98526.84;4842645;29;20000;-71
2023/11/07 06:58:25;;;;;;;;;;;;;;;10.92;73.45;98536.28;4852330;29;19938;-71
2023/11/07 07:00:52;;;;;;;;;;;;;;;10.94;72.91;98534.50;4856268;29;19924;-72
2023/11/07 07:03:24;;;;;;;;;;;;;;;10.87;72.95;98542.53;4855073;29;21815;-71
2023/11/07 07:05:54;;;;;;;;;;;;;;;10.84;72.99;98548.66;4870632;29;20395;-71
2023/11/07 07:08:23;;;;;;;;;;;;;;;10.81;72.94;98548.78;4856160;29;19935;-71
2023/11/07 07:10:49;;;;;;;;;;;;;;;10.77;73.14;98560.19;4870731;29;19924;-70
2023/11/07 07:13:15;;;;;;;;;;;;;;;10.80;73.25;98565.28;4840283;29;20369;-70
2023/11/07 07:15:41;;;;;;;;;;;;;;;10.82;73.51;98560.88;4862414;29;20023;-71
2023/11/07 07:18:07;;;;;;;;;;;;;;;10.83;73.20;98567.78;4860938;29;19932;-71
2023/11/07 07:20:36;;;;;;;;;;;;;;;10.90;73.30;98569.31;4860712;29;20337;-71
2023/11/07 07:23:06;;;;;;;;;;;;;;;11.00;73.40;98572.50;4870790;29;19928;-70
2023/11/07 07:25:32;;;;;;;;;;;;;;;11.06;73.14;98561.03;4855989;29;19951;-71
2023/11/07 07:28:02;;;;;;;;;;;;;;;11.10;73.31;98576.53;4855350;29;19924;-71
2023/11/07 07:30:29;;;;;;;;;;;;;;;11.25;73.23;98575.22;4847999;29;20003;-70
2023/11/07 07:32:55;;;;;;;;;;;;;;;11.34;73.14;98581.88;4839989;29;20403;-71
2023/11/07 07:35:21;;;;;;;;;;;;;;;11.39;72.96;98579.97;4839215;29;19959;-72
2023/11/07 07:37:53;;;;;;;;;;;;;;;11.42;72.97;98579.03;4853405;29;20396;-71
2023/11/07 07:40:25;;;;;;;;;;;;;;;11.44;72.99;98591.09;4854432;29;20398;-72
2023/11/07 07:42:53;;;;;;;;;;;;;;;11.40;72.71;98592.09;4870177;29;19931;-71
2023/11/07 07:45:21;;;;;;;;;;;;;;;11.37;72.61;98589.56;4870852;29;19924;-72
2023/11/07 07:47:48;;;;;;;;;;;;;;;11.39;72.84;98587.78;4848475;29;19924;-72
2023/11/07 07:50:14;;;;;;;;;;;;;;;11.43;72.59;98594.59;4869902;29;20423;-70
2023/11/07 07:52:43;;;;;;;;;;;;;;;11.48;72.25;98586.63;4838624;29;19928;-71
2023/11/07 07:55:09;;;;;;;;;;;;;;;11.47;72.09;98584.09;4839238;29;19924;-71
2023/11/07 07:57:38;;;;;;;;;;;;;;;11.56;72.29;98595.06;4855868;29;19928;-71
2023/11/07 08:00:11;;;;;;;;;;;;;;;11.93;72.40;98603.44;4864286;29;19967;-71
2023/11/07 08:02:41;;;;;;;;;;;;;;;12.24;72.50;98607.66;4858166;29;19934;-70
2023/11/07 08:05:07;;;;;;;;;;;;;;;12.47;71.73;98599.00;4850170;29;20026;-69
2023/11/07 08:07:35;;;;;;;;;;;;;;;12.39;71.32;98594.97;4842389;29;19924;-72
2023/11/07 08:10:10;;;;;;;;;;;;;;;12.42;71.59;98600.91;4856276;29;20316;-71
2023/11/07 08:12:36;;;;;;;;;;;;;;;12.75;71.68;98594.53;4872577;29;19928;-70
2023/11/07 08:15:02;;;;;;;;;;;;;;;12.81;70.32;98597.75;4875109;29;20034;-71
2023/11/07 08:17:29;;;;;;;;;;;;;;;12.78;70.77;98591.81;4872029;29;20355;-70
2023/11/07 08:19:55;;;;;;;;;;;;;;;12.68;70.48;98601.72;4856151;29;19979;-71
2023/11/07 08:22:22;;;;;;;;;;;;;;;12.55;70.06;98598.72;4864262;29;19931;-71
2023/11/07 08:24:48;;;;;;;;;;;;;;;12.49;70.49;98607.63;4856059;29;20486;-72
2023/11/07 08:27:14;;;;;;;;;;;;;;;12.52;70.31;98601.44;4855666;29;20414;-70
2023/11/07 08:29:40;;;;;;;;;;;;;;;12.35;69.72;98604.66;4861203;29;20403;-70
2023/11/07 08:32:07;;;;;;;;;;;;;;;12.22;70.24;98608.59;4855052;29;20026;-72
2023/11/07 08:34:33;;;;;;;;;;;;;;;12.04;70.20;98610.94;4856004;29;19923;-70
2023/11/07 08:37:00;;;;;;;;;;;;;;;11.93;70.30;98610.38;4855760;29;19923;-70
2023/11/07 08:39:27;;;;;;;;;;;;;;;11.77;70.37;98617.88;4854778;29;19950;-71
2023/11/07 08:41:54;;;;;;;;;;;;;;;11.66;70.62;98621.66;4873508;29;19934;-70
2023/11/07 08:44:21;;;;;;;;;;;;;;;11.58;70.60;98615.88;4847120;29;19983;-69
2023/11/07 08:46:48;;;;;;;;;;;;;;;11.47;70.78;98608.41;4872371;29;19923;-72
2023/11/07 08:49:17;;;;;;;;;;;;;;;11.34;71.01;98617.47;4853738;29;19946;-70
2023/11/07 08:51:44;;;;;;;;;;;;;;;11.06;70.93;98590.53;4840021;29;19930;-70
2023/11/07 08:54:10;;;;;;;;;;;;;;;11.17;71.39;98615.38;4854790;29;19934;-70
2023/11/07 08:56:36;;;;;;;;;;;;;;;11.13;71.56;98612.91;4872702;29;20150;-71
2023/11/07 08:59:02;;;;;;;;;;;;;;;11.00;71.76;98624.56;4854016;29;19931;-70
2023/11/07 09:01:27;;;;;;;;;;;;;;;10.89;71.91;98627.47;4855459;29;20010;-69
2023/11/07 09:03:53;;;;;;;;;;;;;;;10.77;71.87;98628.66;4870464;29;19924;-69
2023/11/07 09:06:19;;;;;;;;;;;;;;;10.67;72.35;98629.84;4872070;29;20460;-69
2023/11/07 09:08:46;;;;;;;;;;;;;;;10.71;72.98;98628.84;4854466;29;20690;-69
2023/11/07 09:11:12;;;;;;;;;;;;;;;10.80;73.34;98633.78;4856930;29;19931;-69
2023/11/07 09:13:37;;;;;;;;;;;;;;;10.85;73.15;98628.44;4855983;29;19928;-69
2023/11/07 09:16:03;;;;;;;;;;;;;;;10.87;73.10;98626.66;4873649;29;19935;-70
2023/11/07 09:18:29;;;;;;;;;;;;;;;10.93;73.21;98633.44;4870100;29;20267;-69
2023/11/07 09:20:56;;;;;;;;;;;;;;;10.93;73.50;98649.03;4871133;29;19955;-70
2023/11/07 09:23:22;;;;;;;;;;;;;;;10.83;73.23;98636.31;4854844;29;20006;-69
2023/11/07 09:25:47;;;;;;;;;;;;;;;10.72;73.42;98640.09;4870075;29;20363;-71
2023/11/07 09:28:13;;;;;;;;;;;;;;;10.56;73.33;98643.13;4869165;29;19923;-70
2023/11/07 09:30:39;;;;;;;;;;;;;;;10.46;74.03;98649.47;4860591;29;19924;-70
2023/11/07 09:33:06;;;;;;;;;;;;;;;10.38;73.67;98642.72;4853979;29;19927;-70
2023/11/07 09:35:32;;;;;;;;;;;;;;;10.31;74.10;98651.56;4873060;29;19923;-70
2023/11/07 09:38:01;;;;;;;;;;;;;;;10.22;74.07;98642.25;4853033;29;19932;-71
2023/11/07 09:40:27;;;;;;;;;;;;;;;10.16;74.32;98652.81;4872225;29;19939;-69
2023/11/07 09:42:53;;;;;;;;;;;;;;;10.16;74.43;98649.34;4838965;29;19987;-71
2023/11/07 09:45:19;;;;;;;;;;;;;;;10.16;74.76;98660.59;4867905;29;19924;-70
2023/11/07 09:47:47;;;;;;;;;;;;;;;10.14;74.47;98662.38;4861296;29;20023;-72
2023/11/07 09:50:15;;;;;;;;;;;;;;;10.14;74.84;98662.38;4869519;29;19975;-69
2023/11/07 09:52:43;;;;;;;;;;;;;;;10.24;75.24;98666.47;4870298;29;19975;-70
2023/11/07 09:55:10;;;;;;;;;;;;;;;10.36;75.44;98665.31;4869677;29;20386;-70
2023/11/07 09:57:40;;;;;;;;;;;;;;;10.46;75.22;98668.53;4869460;29;20023;-69
2023/11/07 10:00:09;;;;;;;;;;;;;;;10.52;75.52;98663.16;4871970;29;20411;-70
2023/11/07 10:02:35;;;;;;;;;;;;;;;10.65;75.08;98668.03;4850751;29;20022;-70
2023/11/07 10:05:03;;;;;;;;;;;;;;;10.80;75.09;98672.81;4854580;29;19927;-70
2023/11/07 10:07:29;;;;;;;;;;;;;;;10.98;75.32;98676.66;4837318;29;19927;-70
2023/11/07 10:09:55;;;;;;;;;;;;;;;11.15;74.75;98668.34;4853854;29;19924;-70
2023/11/07 10:12:21;;;;;;;;;;;;;;;11.32;74.89;98668.75;4864654;29;20391;-70
2023/11/07 10:14:47;;;;;;;;;;;;;;;11.51;75.30;98671.66;4846863;29;19924;-69
2023/11/07 10:17:22;;;;;;;;;;;;;;;11.82;75.39;98679.38;4869436;29;19927;-71
2023/11/07 10:20:04;;;;;;;;;;;;;;;12.05;75.09;98678.66;4871553;29;19928;-70
2023/11/07 10:22:50;;;;;;;;;;;;;;;12.27;74.53;98677.94;4870057;29;19931;-70
2023/11/07 10:25:25;;;;;;;;;;;;;;;12.39;74.23;98678.44;4871938;29;19935;-69
2023/11/07 10:27:55;;;;;;;;;;;;;;;12.39;74.19;98678.44;4855294;29;19928;-70
2023/11/07 10:30:22;;;;;;;;;;;;;;;12.28;73.58;98687.47;4881150;29;19995;-70
2023/11/07 10:32:53;;;;;;;;;;;;;;;12.25;73.56;98690.16;4856501;29;20007;-71
2023/11/07 10:35:19;;;;;;;;;;;;;;;12.23;73.49;98688.53;4858328;29;19931;-70
2023/11/07 10:37:45;;;;;;;;;;;;;;;12.17;73.18;98693.03;4839236;29;19928;-70
2023/11/07 10:40:12;;;;;;;;;;;;;;;12.13;73.01;98693.19;4850589;29;20442;-69
2023/11/07 10:42:44;;;;;;;;;;;;;;;12.14;73.12;98694.91;4873656;29;19977;-69
2023/11/07 10:45:12;;;;;;;;;;;;;;;12.23;73.44;98699.81;4851964;29;20394;-71
2023/11/07 10:47:39;;;;;;;;;;;;;;;12.31;73.25;98707.41;4841151;29;19928;-72
2023/11/07 10:50:05;;;;;;;;;;;;;;;12.30;73.30;98705.69;4871244;29;21237;-71
2023/11/07 10:52:31;;;;;;;;;;;;;;;12.24;72.86;98709.34;4870329;29;19935;-70
2023/11/07 10:54:58;;;;;;;;;;;;;;;12.19;72.96;98708.66;4854581;29;19938;-70
2023/11/07 10:57:26;;;;;;;;;;;;;;;12.14;72.84;98713.16;4872276;29;19927;-70
2023/11/07 10:59:58;;;;;;;;;;;;;;;12.02;72.64;98714.41;4868529;29;19928;-71
2023/11/07 11:02:26;;;;;;;;;;;;;;;11.93;72.63;98725.09;4859361;29;19923;-70
2023/11/07 11:04:53;;;;;;;;;;;;;;;11.96;72.78;98722.38;4859186;29;19923;-71
2023/11/07 11:07:19;;;;;;;;;;;;;;;11.99;72.84;98731.00;4875954;29;20378;-69
2023/11/07 11:09:46;;;;;;;;;;;;;;;11.88;72.30;98736.53;4858413;29;20371;-69
2023/11/07 11:12:12;;;;;;;;;;;;;;;11.78;72.39;98732.50;4858203;29;19931;-69
2023/11/07 11:14:38;;;;;;;;;;;;;;;11.65;72.52;98745.03;4858259;29;19995;-69
2023/11/07 11:17:08;;;;;;;;;;;;;;;11.55;72.28;98735.81;4858081;29;20392;-71
2023/11/07 11:19:45;;;;;;;;;;;;;;;11.47;72.63;98746.47;4873800;29;19927;-69
2023/11/07 11:22:20;;;;;;;;;;;;;;;11.41;72.75;98747.47;4859394;29;20371;-71
2023/11/07 11:25:05;;;;;;;;;;;;;;;11.41;72.71;98749.22;4856557;29;19928;-70
2023/11/07 11:27:41;;;;;;;;;;;;;;;11.41;72.83;98751.84;4858157;29;19923;-70
2023/11/07 11:30:07;;;;;;;;;;;;;;;11.40;72.54;98757.94;4876469;29;20431;-70
2023/11/07 11:32:33;;;;;;;;;;;;;;;11.44;72.80;98760.41;4858093;29;19923;-71
2023/11/07 11:35:21;;;;;;;;;;;;;;;11.52;72.52;98759.34;4859144;29;19980;-71
2023/11/07 11:38:21;;;;;;;;;;;;;;;11.64;72.50;98758.13;4870381;29;20026;-70
2023/11/07 11:40:50;;;;;;;;;;;;;;;11.78;72.70;98766.38;4876397;29;19928;-69
2023/11/07 11:43:17;;;;;;;;;;;;;;;11.87;72.49;98758.28;4850223;29;20464;-70
2023/11/07 11:45:44;;;;;;;;;;;;;;;11.88;72.34;98772.16;4851273;29;19924;-71
2023/11/07 11:48:10;;;;;;;;;;;;;;;11.87;72.02;98773.06;4857268;29;19928;-70
2023/11/07 11:50:37;;;;;;;;;;;;;;;11.82;71.93;98772.34;4861040;29;19935;-70
2023/11/07 11:53:05;;;;;;;;;;;;;;;11.82;72.16;98780.16;4846444;29;19963;-71
2023/11/07 11:55:50;;;;;;;;;;;;;;;11.76;71.79;98778.59;4869613;29;19930;-71
2023/11/07 11:58:23;;;;;;;;;;;;;;;11.73;71.94;98786.50;4857843;29;19980;-71
2023/11/07 12:00:49;;;;;;;;;;;;;;;11.72;71.65;98788.25;4877636;29;19980;-72
2023/11/07 12:03:16;;;;;;;;;;;;;;;11.76;71.55;98802.03;4861302;29;20371;-71
2023/11/07 12:05:58;;;;;;;;;;;;;;;11.74;71.45;98788.22;4860080;29;20018;-70
2023/11/07 12:08:37;;;;;;;;;;;;;;;11.69;71.25;98798.78;4868275;29;19927;-70
2023/11/07 12:11:04;;;;;;;;;;;;;;;11.60;71.25;98799.03;4858385;29;19938;-70
2023/11/07 12:13:33;;;;;;;;;;;;;;;11.48;71.38;98792.41;4876117;29;19924;-70
2023/11/07 12:16:19;;;;;;;;;;;;;;;11.44;71.11;98801.25;4868739;29;20615;-71
2023/11/07 12:18:46;;;;;;;;;;;;;;;11.46;71.25;98812.47;4876780;29;19932;-70
2023/11/07 12:21:43;;;;;;;;;;;;;;;11.49;71.12;98809.75;4858215;29;20403;-71
2023/11/07 12:24:10;;;;;;;;;;;;;;;11.48;71.12;98812.41;4871021;29;19942;-71
2023/11/07 12:26:37;;;;;;;;;;;;;;;11.45;71.02;98809.00;4875638;29;20310;-71
2023/11/07 12:29:02;;;;;;;;;;;;;;;11.42;70.84;98814.28;4843811;29;20022;-71
2023/11/07 12:31:37;;;;;;;;;;;;;;;11.40;71.01;98830.88;4851342;29;20019;-71
2023/11/07 12:34:03;;;;;;;;;;;;;;;11.42;70.85;98827.31;4876202;29;19989;-70
2023/11/07 12:36:29;;;;;;;;;;;;;;;11.37;71.04;98829.19;4859339;29;19924;-71
2023/11/07 12:38:55;;;;;;;;;;;;;;;11.35;70.83;98825.81;4877087;29;19928;-70
2023/11/07 12:41:24;;;;;;;;;;;;;;;11.32;70.84;98830.22;4858650;29;19934;-71
2023/11/07 12:43:51;;;;;;;;;;;;;;;11.28;70.53;98839.88;4857690;29;19924;-71
2023/11/07 12:46:18;;;;;;;;;;;;;;;11.24;70.51;98830.44;4859419;29;19946;-70
2023/11/07 12:48:47;;;;;;;;;;;;;;;11.20;70.59;98847.03;4857810;29;20315;-72